Terminal Aerodrome Forecast
Issued by NWS Omaha/Valley, NE

Home | Current Version | Previous Version | Graphics & Text | Print | Product List | Glossary On
Versions: 1 2 3 4 5 6 7 8 9 10 11 12 13 14 15 16 17 18 19 20 21 22 23
000
FTUS43 KOAX 220746 AAA
TAFOFK
TAF AMD
KOFK 220746Z 2208/2306 16007KT P6SM VCTS FEW040CB BKN060
     FM221300 15010KT P6SM SCT025 BKN100
     FM221700 17011KT P6SM SCT050
     FM230300 14008KT P6SM BKN250=

USA.gov is the U.S. government's official web portal to all federal, state and local government web resources and services.